PORTS® Data Listing: 9075099 De Tour Village, MI

CO-OPS RAW PORTS DATA

************************      PRELIMINARY DATA      ************************** 

     THIS RAW DATA HAS NOT BEEN SUBJECT TO THE NATIONAL OCEAN SERVICE'S        
     QUALITY CONTROL OR QUALITY ASSURANCE PROCEDURES AND DOES NOT MEET         
     THE CRITERIA AND STANDARDS OF OFFICIAL NATIONAL OCEAN SERVICE             
     DATA.  IT IS RELEASED FOR LIMITED PUBLIC USE AS PRELIMINARY DATA TO       
     BE USED ONLY WITH APPROPRIATE CAUTION.                                    

************************      PRELIMINARY DATA      ************************** 


       CD   -   Calendar date
       T    -   Time
       TZ   -   Timezone
       SW   -   Observed secondary water level (inches IGLD 1985)
       PW   -   Observed primary water level (inches IGLD 1985)
       WS   -   Wind speed (knots)
       WD   -   Wind direction (degrees true)
       WG   -   Wind gust (knots)
       AT   -   Air temperature (degrees farenheit)
       WT   -   Water temperature (degrees farenheit)
       AP   -   Air pressure (millibars)
       SA   -   Salinty (PSU - Practical Salinity Units)
       SG   -   Specific gravity
       RH   -   Relative humidity
       AG   -   Air gap (feet)
       VI   -   Visibility (nautical miles)

       ** NOTE **
       A variable that has its data fields filled with "9"s, indicates that
       data was not collected for that sample period.
       **********


STATION NAME: De Tour Village (9075099)
****************************************************************************************************
    CD       T    TZ    SW     PW    WS   WD   WG    AT    WT    AP    SA    SG     RH    AG   VI
****************************************************************************************************
2020/01/18 06:42 EST   50.04  50.08   13   93   17  21.0  34.5 1018.0 -9.9 -9.999  98.3 -99.99 -9.99
2020/01/18 06:48 EST   49.92  49.96   13   91   17  21.0  34.5 1017.7 -9.9 -9.999  98.1 -99.99 -9.99
2020/01/18 06:54 EST   49.96  50.00   12   93   16  21.2  34.3 1017.6 -9.9 -9.999  98.7 -99.99 -9.99
2020/01/18 07:00 EST   49.76  49.80   12   92   15  21.0  34.5 1017.7 -9.9 -9.999  98.6 -99.99 -9.99
2020/01/18 07:06 EST   49.69  49.72   11   92   14  21.2  34.3 1017.6 -9.9 -9.999  98.5 -99.99 -9.99
2020/01/18 07:12 EST   50.08  50.12   12   91   15  21.2  34.3 1017.4 -9.9 -9.999  98.5 -99.99 -9.99
2020/01/18 07:18 EST   49.69  49.72   11   90   15  21.4  34.5 1017.0 -9.9 -9.999  98.8 -99.99 -9.99
2020/01/18 07:24 EST   49.37  49.41   10   93   15  21.6  34.3 1016.9 -9.9 -9.999  99.7 -99.99 -9.99
2020/01/18 07:30 EST   49.65  49.69   11   86   13  21.7  34.5 1016.8 -9.9 -9.999  99.5 -99.99 -9.99
2020/01/18 07:36 EST   50.04  50.08   11   88   14  21.4  34.3 1016.5 -9.9 -9.999  99.4 -99.99 -9.99
2020/01/18 07:42 EST   49.88  49.92   13   88   17  21.4  34.3 1016.1 -9.9 -9.999  99.9 -99.99 -9.99
2020/01/18 07:48 EST   50.16  50.20   11   91   15  21.7  34.3 1016.0 -9.9 -9.999 100.0 -99.99 -9.99
2020/01/18 07:54 EST   50.08  50.12    9   90   12  21.9  34.3 1015.9 -9.9 -9.999 100.0 -99.99 -9.99
2020/01/18 08:00 EST   49.96  50.00   10   82   13  21.9  34.3 1015.7 -9.9 -9.999 100.0 -99.99 -9.99
2020/01/18 08:06 EST   49.80  49.84   11   80   14  21.9  34.3 1015.5 -9.9 -9.999 100.0 -99.99 -9.99
2020/01/18 08:12 EST   49.72  49.76   11   79   14  21.7  34.3 1015.3 -9.9 -9.999  99.9 -99.99 -9.99
2020/01/18 08:18 EST   49.69  49.72   12   85   14  21.7  34.3 1015.1 -9.9 -9.999  99.9 -99.99 -9.99
2020/01/18 08:24 EST   49.57  49.61   11   85   14  21.6  34.3 1014.9 -9.9 -9.999  99.9 -99.99 -9.99
2020/01/18 08:30 EST   49.65  49.69   13   88   16  21.4  34.3 1014.6 -9.9 -9.999  99.9 -99.99 -9.99
2020/01/18 08:36 EST   49.61  49.65   15   92   17  21.0  34.3 1014.3 -9.9 -9.999  99.6 -99.99 -9.99
2020/01/18 08:42 EST   49.37  49.41   13   91   20  21.4  34.3 1014.1 -9.9 -9.999  99.7 -99.99 -9.99
2020/01/18 08:48 EST   49.72  49.76   12   93   17  21.2  34.3 1013.9 -9.9 -9.999  99.9 -99.99 -9.99
2020/01/18 08:54 EST   49.69  49.72   14   93   17  21.2  34.3 1013.5 -9.9 -9.999  99.8 -99.99 -9.99
2020/01/18 09:00 EST   49.41  49.45   13   94   17  21.4  34.3 1013.1 -9.9 -9.999 100.0 -99.99 -9.99
2020/01/18 09:06 EST   49.29  49.33   14   92   18  21.4  34.3 1012.7 -9.9 -9.999  99.9 -99.99 -9.99
2020/01/18 09:12 EST   49.49  49.53   11   89   17  21.6  34.3 1012.6 -9.9 -9.999 100.0 -99.99 -9.99
2020/01/18 09:18 EST   49.41  49.45   13   93   17  21.7  34.3 1012.1 -9.9 -9.999  99.9 -99.99 -9.99
2020/01/18 09:24 EST   49.25  49.29   14   89   17  21.6  34.3 1011.9 -9.9 -9.999  99.9 -99.99 -9.99
2020/01/18 09:30 EST   49.06  49.09   12   91   15  21.7  34.3 1011.6 -9.9 -9.999 100.0 -99.99 -9.99
2020/01/18 09:36 EST   49.45  49.49   12   93   17  21.9  34.3 1011.2 -9.9 -9.999 100.0 -99.99 -9.99
2020/01/18 09:42 EST   49.69  49.72   16   90   19  21.7  34.3 1011.0 -9.9 -9.999  99.8 -99.99 -9.99
2020/01/18 09:48 EST   49.80  49.84   14   93   17  21.7  34.3 1010.6 -9.9 -9.999  99.7 -99.99 -9.99
2020/01/18 09:54 EST   49.69  49.76   15   96   19  22.1  34.3 1010.1 -9.9 -9.999  99.7 -99.99 -9.99
2020/01/18 10:00 EST   49.84  49.88   13  100   17  22.1  34.3 1010.1 -9.9 -9.999  99.8 -99.99 -9.99
2020/01/18 10:06 EST   49.96  50.00   14   98   19  22.3  34.3 1009.7 -9.9 -9.999  99.4 -99.99 -9.99
2020/01/18 10:12 EST   49.88  49.92   13   91   19  22.5  34.3 1009.5 -9.9 -9.999  99.5 -99.99 -9.99
2020/01/18 10:18 EST   50.24  50.28   15  100   20  22.6  34.3 1009.3 -9.9 -9.999  98.9 -99.99 -9.99
2020/01/18 10:24 EST   50.12  50.16   10   98   17  23.0  34.3 1009.4 -9.9 -9.999  99.4 -99.99 -9.99
2020/01/18 10:30 EST   50.75  50.79   12   90   18  22.8  34.3 1009.2 -9.9 -9.999  98.6 -99.99 -9.99
2020/01/18 10:36 EST   51.06  51.10   11   94   17  23.0  34.3 1009.0 -9.9 -9.999  99.0 -99.99 -9.99
2020/01/18 10:42 EST   50.63  50.67   13   93   18  22.8  34.3 1008.9 -9.9 -9.999  98.9 -99.99 -9.99
2020/01/18 10:48 EST   50.91  50.94   14   94   19  23.0  34.3 1008.7 -9.9 -9.999  98.9 -99.99 -9.99
2020/01/18 10:54 EST   51.14  51.18   15  102   18  23.4  34.3 1008.5 -9.9 -9.999  99.4 -99.99 -9.99
2020/01/18 11:00 EST   50.98  50.98   17  102   19  23.5  34.3 1008.4 -9.9 -9.999  99.6 -99.99 -9.99
2020/01/18 11:06 EST   51.14  51.18   14  101   21  23.9  34.2 1007.9 -9.9 -9.999  99.9 -99.99 -9.99
2020/01/18 11:12 EST   50.75  50.79   12   97   18  23.7  34.3 1007.7 -9.9 -9.999  99.9 -99.99 -9.99
2020/01/18 11:18 EST   50.94  50.98   11   95   20  23.5  34.2 1007.4 -9.9 -9.999  99.7 -99.99 -9.99
2020/01/18 11:24 EST   51.06  51.10   14   98   19  23.4  34.2 1007.1 -9.9 -9.999  99.6 -99.99 -9.99
2020/01/18 11:30 EST   50.94  50.98   14   96   17  23.4  34.2 1007.0 -9.9 -9.999  96.6 -99.99 -9.99
2020/01/18 11:36 EST   51.26  51.30   14  104   20  23.2  34.2 1006.9 -9.9 -9.999  99.3 -99.99 -9.99
2020/01/18 11:42 EST   51.30  51.34   12   97   18  23.2  34.2 1006.4 -9.9 -9.999 100.0 -99.99 -9.99
2020/01/18 11:48 EST   51.42  51.46   14   96   18  23.0  34.2 1006.2 -9.9 -9.999 100.0 -99.99 -9.99
2020/01/18 11:54 EST   50.75  50.79   12   92   17  23.2  34.2 1005.6 -9.9 -9.999 100.0 -99.99 -9.99
2020/01/18 12:00 EST   50.43  50.47   12   94   17  23.2  34.2 1005.2 -9.9 -9.999 100.0 -99.99 -9.99
2020/01/18 12:06 EST   50.47  50.51   10   91   13  23.2  34.2 1004.9 -9.9 -9.999 100.0 -99.99 -9.99
2020/01/18 12:12 EST   50.63  50.67   12   84   16  22.8  34.2 1004.5 -9.9 -9.999 100.0 -99.99 -9.99
2020/01/18 12:18 EST   51.69  51.73   12   85   15  22.6  34.2 1004.4 -9.9 -9.999 100.0 -99.99 -9.99
2020/01/18 12:24 EST   50.94  50.98   14   87   16  22.3  34.2 1004.2 -9.9 -9.999 100.0 -99.99 -9.99
2020/01/18 12:30 EST   51.18  51.22   11   87   15  22.6  34.2 1004.2 -9.9 -9.999 100.0 -99.99 -9.99
2020/01/18 12:36 EST   51.14  51.18   12   88   15  22.6  34.2 1004.0 -9.9 -9.999 100.0 -99.99 -9.99
2020/01/18 12:42 EST   50.98  51.02   12   78   16  22.5  34.2 1003.8 -9.9 -9.999 100.0 -99.99 -9.99
2020/01/18 12:48 EST   51.22  51.22   12   82   17  22.5  34.2 1003.4 -9.9 -9.999 100.0 -99.99 -9.99
2020/01/18 12:54 EST   51.38  51.42   13   82   17  22.5  34.2 1003.2 -9.9 -9.999 100.0 -99.99 -9.99
2020/01/18 13:00 EST   50.87  50.91   14   77   18  22.3  34.2 1003.0 -9.9 -9.999 100.0 -99.99 -9.99
2020/01/18 13:06 EST   50.83  50.91   12   80   17  22.3  34.2 1002.6 -9.9 -9.999 100.0 -99.99 -9.99
2020/01/18 13:12 EST   50.67  50.71   18   86   22  21.9  34.2 1002.3 -9.9 -9.999 100.0 -99.99 -9.99
2020/01/18 13:18 EST   50.83  50.87   17   83   20  22.1  34.2 1002.0 -9.9 -9.999 100.0 -99.99 -9.99
2020/01/18 13:24 EST   50.55  50.59   13   75   19  22.3  34.2 1001.8 -9.9 -9.999 100.0 -99.99 -9.99
2020/01/18 13:30 EST   50.83  50.87   12   69   19  21.9  34.2 1001.6 -9.9 -9.999 100.0 -99.99 -9.99
2020/01/18 13:36 EST   50.31  50.35   13   73   19  21.7  34.2 1001.5 -9.9 -9.999 100.0 -99.99 -9.99
2020/01/18 13:42 EST   50.28  50.31   13   72   17  21.9  34.2 1001.3 -9.9 -9.999 100.0 -99.99 -9.99
2020/01/18 13:48 EST   50.04  50.08   14   70   20  21.7  34.2 1001.1 -9.9 -9.999 100.0 -99.99 -9.99
2020/01/18 13:54 EST   49.29  49.33   16   71   20  21.6  34.2 1000.9 -9.9 -9.999 100.0 -99.99 -9.99
2020/01/18 14:00 EST   48.82  48.86   16   71   21  21.4  34.2 1000.7 -9.9 -9.999 100.0 -99.99 -9.99
2020/01/18 14:06 EST   49.13  49.17   17   71   19  21.2  34.2 1000.5 -9.9 -9.999 100.0 -99.99 -9.99
2020/01/18 14:12 EST   48.54  48.62   17   70   22  21.6  34.2 1000.3 -9.9 -9.999 100.0 -99.99 -9.99
2020/01/18 14:18 EST   48.62  48.70   17   77   21  20.8  34.2 1000.1 -9.9 -9.999 100.0 -99.99 -9.99
2020/01/18 14:24 EST   48.86  48.90   17   74   23  21.0  34.2  999.8 -9.9 -9.999 100.0 -99.99 -9.99
2020/01/18 14:30 EST   48.50  48.58   15   66   20  20.8  34.2  999.6 -9.9 -9.999 100.0 -99.99 -9.99
2020/01/18 14:36 EST   48.43  48.46   17   68   23  20.5  34.2  999.5 -9.9 -9.999 100.0 -99.99 -9.99
2020/01/18 14:42 EST   48.74  48.78   17   66   22  20.3  34.2  999.3 -9.9 -9.999 100.0 -99.99 -9.99
2020/01/18 14:48 EST   48.58  48.62 -999 -999 -999  20.5  34.2  999.1 -9.9 -9.999 100.0 -99.99 -9.99
2020/01/18 14:54 EST   48.43  48.46 -999 -999 -999  20.7  34.2  999.1 -9.9 -9.999 100.0 -99.99 -9.99
2020/01/18 15:00 EST   48.43  48.46   16   73   25  20.8  34.2  999.0 -9.9 -9.999 100.0 -99.99 -9.99
2020/01/18 15:06 EST   47.72  47.76   16   69   24  21.2  34.2  998.9 -9.9 -9.999 100.0 -99.99 -9.99
2020/01/18 15:12 EST   47.52  47.60   18   72   28  20.8  34.2  998.8 -9.9 -9.999 100.0 -99.99 -9.99
2020/01/18 15:18 EST   47.83  47.91   17   68   23  21.2  34.2  998.7 -9.9 -9.999  99.9 -99.99 -9.99
2020/01/18 15:24 EST   47.76  47.83   17   68   19  21.0  34.2  998.5 -9.9 -9.999  99.9 -99.99 -9.99
2020/01/18 15:30 EST   47.56  47.60   15   66   21  20.8  34.2  998.4 -9.9 -9.999  99.7 -99.99 -9.99
2020/01/18 15:36 EST   47.44  47.48   17   68   25  21.0  34.2  998.2 -9.9 -9.999  99.5 -99.99 -9.99
2020/01/18 15:42 EST   47.20  47.24   18   65   22  21.0  34.2  998.2 -9.9 -9.999  99.1 -99.99 -9.99
2020/01/18 15:48 EST   46.85  46.93   18   63   23  20.8  34.2  998.2 -9.9 -9.999  98.2 -99.99 -9.99
2020/01/18 15:54 EST   46.93  46.97   14   61   19  20.8  34.2  998.1 -9.9 -9.999  99.6 -99.99 -9.99
2020/01/18 16:00 EST   46.73  46.77   17   59   22  21.0  34.2  998.0 -9.9 -9.999  99.6 -99.99 -9.99
2020/01/18 16:06 EST   46.50  46.54   17   58   23  20.8  34.2  998.0 -9.9 -9.999  99.4 -99.99 -9.99
2020/01/18 16:12 EST   46.42  46.46   18   58   23  20.8  34.2  997.9 -9.9 -9.999  99.5 -99.99 -9.99
2020/01/18 16:18 EST   46.54  46.57   17   59   22  20.8  34.2  997.8 -9.9 -9.999  99.6 -99.99 -9.99
2020/01/18 16:24 EST   46.46  46.54   20   59   25  20.1  34.2  997.8 -9.9 -9.999  99.1 -99.99 -9.99
2020/01/18 16:30 EST   46.73  46.81   18   62   23  20.3  34.2  997.8 -9.9 -9.999  99.7 -99.99 -9.99
2020/01/18 16:36 EST   46.73  46.77   18   60   24  20.1  34.2  997.8 -9.9 -9.999  99.2 -99.99 -9.99
2020/01/18 16:42 EST   46.57  46.61   18   63   24  20.1  34.2  997.8 -9.9 -9.999  99.2 -99.99 -9.99
2020/01/18 16:48 EST   46.65  46.73   15   61   21  19.9  34.2  997.9 -9.9 -9.999  99.4 -99.99 -9.99
2020/01/18 16:54 EST   46.57  46.65   16   58   22  19.9  34.2  997.9 -9.9 -9.999  99.4 -99.99 -9.99
2020/01/18 17:00 EST   46.61  46.65   17   59   21  19.8  34.2  997.9 -9.9 -9.999  99.4 -99.99 -9.99
2020/01/18 17:06 EST   46.81  46.85   14   59   22  19.9  34.2  997.9 -9.9 -9.999  99.7 -99.99 -9.99
2020/01/18 17:12 EST   46.38  46.42   16   57   21  19.6  34.2  997.9 -9.9 -9.999  99.3 -99.99 -9.99
2020/01/18 17:18 EST   46.50  46.57   16   59   21  19.6  34.2  997.9 -9.9 -9.999  99.0 -99.99 -9.99
2020/01/18 17:24 EST   46.69  46.73   15   62   22  19.8  34.2  998.0 -9.9 -9.999  98.9 -99.99 -9.99
2020/01/18 17:30 EST   46.50  46.54   15   57   20  19.2  34.2  998.0 -9.9 -9.999  98.8 -99.99 -9.99
2020/01/18 17:36 EST   46.54  46.57   17   59   21  19.4  34.2  998.1 -9.9 -9.999  98.5 -99.99 -9.99
2020/01/18 17:42 EST   46.18  46.26   14   56   21  19.4  34.2  998.1 -9.9 -9.999  98.3 -99.99 -9.99
2020/01/18 17:48 EST   45.87  45.91   13   61   18  19.6  34.2  998.2 -9.9 -9.999  97.8 -99.99 -9.99
2020/01/18 17:54 EST   45.75  45.83   13   55   18  19.4  34.2  998.1 -9.9 -9.999  98.3 -99.99 -9.99
2020/01/18 18:00 EST   45.98  46.02   15   58   19  19.0  34.2  998.2 -9.9 -9.999  97.7 -99.99 -9.99
2020/01/18 18:06 EST   45.79  45.87   15   65   19  19.2  34.2  998.2 -9.9 -9.999  97.6 -99.99 -9.99
2020/01/18 18:12 EST   45.87  45.91   16   63   19  19.2  34.2  998.3 -9.9 -9.999  97.3 -99.99 -9.99
2020/01/18 18:18 EST   45.71  45.75   15   59   19  19.0  34.2  998.4 -9.9 -9.999  96.8 -99.99 -9.99
2020/01/18 18:24 EST   45.47  45.55   14   60   20  19.2  34.2  998.4 -9.9 -9.999  97.5 -99.99 -9.99
2020/01/18 18:30 EST   45.20  45.28   12   66   19  19.2  34.2  998.5 -9.9 -9.999  97.6 -99.99 -9.99
2020/01/18 18:36 EST   45.43  45.47   13   56   18  19.0  34.2  998.5 -9.9 -9.999  97.6 -99.99 -9.99
2020/01/18 18:42 EST   45.39  45.43   12   64   18  19.0  34.2  998.7 -9.9 -9.999  97.2 -99.99 -9.99
2020/01/18 18:48 EST   45.31  45.35   11   63   15  19.0  34.2  998.9 -9.9 -9.999  97.4 -99.99 -9.99
2020/01/18 18:54 EST   45.04  45.08   10   44   14  18.9  34.2  999.0 -9.9 -9.999  97.4 -99.99 -9.99
2020/01/18 19:00 EST   44.72  44.72   14   43   16  18.1  34.2  999.1 -9.9 -9.999  96.2 -99.99 -9.99
2020/01/18 19:06 EST   44.37  44.41   14   48   17  18.3  34.2  999.2 -9.9 -9.999  95.9 -99.99 -9.99
2020/01/18 19:12 EST   44.41  44.45   15   41   17  18.0  34.2  999.2 -9.9 -9.999  95.8 -99.99 -9.99
2020/01/18 19:18 EST   44.57  44.61   15   42   17  18.0  34.2  999.4 -9.9 -9.999  96.3 -99.99 -9.99
2020/01/18 19:24 EST   44.25  44.29   15   41   18  18.1  34.2  999.5 -9.9 -9.999  95.5 -99.99 -9.99
2020/01/18 19:30 EST   44.25  44.29   14   41   17  18.0  34.2  999.6 -9.9 -9.999  96.1 -99.99 -9.99
2020/01/18 19:36 EST   44.06  44.13   15   43   19  17.4  34.2  999.6 -9.9 -9.999  96.1 -99.99 -9.99
2020/01/18 19:42 EST   43.82  43.82   15   34   19  17.2  34.2  999.8 -9.9 -9.999  96.7 -99.99 -9.99
2020/01/18 19:48 EST   43.82  43.86   16   36   18  16.9  34.2  999.8 -9.9 -9.999  96.3 -99.99 -9.99
2020/01/18 19:54 EST   43.58  43.58   14   34   18  17.1  34.2  999.9 -9.9 -9.999  97.1 -99.99 -9.99
2020/01/18 20:00 EST   43.19  43.23   13   41   17  17.4  34.2 1000.0 -9.9 -9.999  96.8 -99.99 -9.99
2020/01/18 20:06 EST   43.03  43.11   15   34   19  17.1  34.2 1000.0 -9.9 -9.999  95.5 -99.99 -9.99
2020/01/18 20:12 EST   43.07  43.11   14   40   17  16.9  34.2 1000.1 -9.9 -9.999  94.6 -99.99 -9.99
2020/01/18 20:18 EST   42.95  42.99   15   31   17  16.7  34.3 1000.0 -9.9 -9.999  95.1 -99.99 -9.99
2020/01/18 20:24 EST   42.99  43.03   15   38   18  16.7  34.2 1000.1 -9.9 -9.999  94.1 -99.99 -9.99
2020/01/18 20:30 EST   43.15  43.19   14   38   17  16.9  34.3 1000.1 -9.9 -9.999  94.4 -99.99 -9.99
2020/01/18 20:36 EST   42.95  42.99   14   40   17  16.7  34.3 1000.0 -9.9 -9.999  94.4 -99.99 -9.99
2020/01/18 20:42 EST   42.99  42.99   14   42   17  16.7  34.3 1000.1 -9.9 -9.999  95.2 -99.99 -9.99
2020/01/18 20:48 EST   42.87  42.91   13   41   16  16.9  34.3 1000.2 -9.9 -9.999  94.6 -99.99 -9.99
2020/01/18 20:54 EST   42.72  42.76   12   43   17  16.7  34.3 1000.2 -9.9 -9.999  95.5 -99.99 -9.99
2020/01/18 21:00 EST   42.64  42.68   15   29   17  16.3  34.3 1000.2 -9.9 -9.999  94.5 -99.99 -9.99
2020/01/18 21:06 EST   42.60  42.68   13   28   16  16.3  34.3 1000.3 -9.9 -9.999  94.5 -99.99 -9.99
2020/01/18 21:12 EST   42.76  42.80   12   31   15  16.3  34.3 1000.3 -9.9 -9.999  94.3 -99.99 -9.99
2020/01/18 21:18 EST   42.80  42.83   13   22   15  16.2  34.3 1000.4 -9.9 -9.999  94.6 -99.99 -9.99
2020/01/18 21:24 EST   42.99  43.03   11   26   14  16.2  34.3 1000.5 -9.9 -9.999  94.0 -99.99 -9.99
2020/01/18 21:30 EST   43.15  43.19   13   22   15  16.3  34.3 1000.5 -9.9 -9.999  93.6 -99.99 -9.99
2020/01/18 21:36 EST   42.95  42.99   13   27   15  16.0  34.3 1000.6 -9.9 -9.999  92.9 -99.99 -9.99
2020/01/18 21:42 EST   42.91  42.91   13   32   16  16.0  34.3 1000.6 -9.9 -9.999  92.2 -99.99 -9.99
2020/01/18 21:48 EST   42.83  42.87   12   26   16  16.2  34.3 1000.7 -9.9 -9.999  92.5 -99.99 -9.99
2020/01/18 21:54 EST   42.95  43.03   12   41   16  16.2  34.3 1000.8 -9.9 -9.999  91.4 -99.99 -9.99
2020/01/18 22:00 EST   42.99  43.03   14   29   17  16.0  34.3 1000.9 -9.9 -9.999  90.8 -99.99 -9.99
2020/01/18 22:06 EST   43.03  43.07   14   36   17  16.0  34.3 1000.9 -9.9 -9.999  90.9 -99.99 -9.99
2020/01/18 22:12 EST   43.03  43.07   13   38   17  16.2  34.3 1001.0 -9.9 -9.999  90.5 -99.99 -9.99
2020/01/18 22:18 EST   43.03  43.11   12   31   16  16.0  34.3 1001.0 -9.9 -9.999  90.0 -99.99 -9.99
2020/01/18 22:24 EST   43.07  43.11   13   31   15  16.0  34.3 1001.1 -9.9 -9.999  90.7 -99.99 -9.99
2020/01/18 22:30 EST   43.27  43.31   12   28   16  15.8  34.3 1001.1 -9.9 -9.999  90.0 -99.99 -9.99
2020/01/18 22:36 EST   43.39  43.43   12   35   16  16.0  34.3 1001.2 -9.9 -9.999  90.3 -99.99 -9.99
2020/01/18 22:42 EST   43.46  43.46   11   22   14  16.2  34.3 1001.4 -9.9 -9.999  91.3 -99.99 -9.99
2020/01/18 22:48 EST   43.35  43.39   11   23   14  16.3  34.3 1001.6 -9.9 -9.999  92.6 -99.99 -9.99
2020/01/18 22:54 EST   43.23  43.27   11   17   13  16.0  34.3 1001.7 -9.9 -9.999  92.3 -99.99 -9.99
2020/01/18 23:00 EST   43.11  43.15   10   13   13  16.2  34.3 1001.8 -9.9 -9.999  92.5 -99.99 -9.99
2020/01/18 23:06 EST   43.23  43.27   10   15   12  16.0  34.3 1001.9 -9.9 -9.999  92.6 -99.99 -9.99
2020/01/18 23:12 EST   43.31  43.35   10   20   12  16.0  34.3 1002.0 -9.9 -9.999  92.6 -99.99 -9.99
2020/01/18 23:18 EST   43.19  43.23   11   21   13  15.6  34.3 1002.0 -9.9 -9.999  91.9 -99.99 -9.99
2020/01/18 23:24 EST   43.39  43.43   10   12   13  16.0  34.3 1002.2 -9.9 -9.999  92.1 -99.99 -9.99
2020/01/18 23:30 EST   43.43  43.46   12   19   14  15.6  34.3 1002.4 -9.9 -9.999  82.5 -99.99 -9.99
2020/01/18 23:36 EST   43.46  43.46   12   25   15  15.4  34.3 1002.5 -9.9 -9.999  87.2 -99.99 -9.99
2020/01/18 23:42 EST   43.82  43.86   11   22   14  15.4  34.3 1002.6 -9.9 -9.999  87.5 -99.99 -9.99
2020/01/18 23:48 EST   43.82  43.86   12   15   15  15.4  34.3 1002.7 -9.9 -9.999  86.9 -99.99 -9.99
2020/01/18 23:54 EST   43.74  43.78   11   26   14  15.6  34.3 1002.9 -9.9 -9.999  86.9 -99.99 -9.99
2020/01/19 00:00 EST   43.90  43.94   11   13   13  15.6  34.3 1003.0 -9.9 -9.999  87.8 -99.99 -9.99
2020/01/19 00:06 EST   44.13  44.17   11    7   13  15.6  34.3 1003.1 -9.9 -9.999  89.3 -99.99 -9.99
2020/01/19 00:12 EST   44.41  44.41   12   12   14  15.4  34.3 1003.3 -9.9 -9.999  88.8 -99.99 -9.99
2020/01/19 00:18 EST   44.61  44.65   12   11   15  15.3  34.3 1003.4 -9.9 -9.999  89.0 -99.99 -9.99
2020/01/19 00:24 EST   44.72  44.76   12    5   14  15.1  34.3 1003.5 -9.9 -9.999  89.8 -99.99 -9.99
2020/01/19 00:30 EST   44.80  44.80   13    7   15  15.1  34.3 1003.5 -9.9 -9.999  90.1 -99.99 -9.99
2020/01/19 00:36 EST  -99.99 -99.99 -999 -999 -999 -99.9 -99.9 -999.9 -9.9 -9.999 -99.9 -99.99 -9.99
2020/01/19 00:42 EST  -99.99 -99.99 -999 -999 -999 -99.9 -99.9 -999.9 -9.9 -9.999 -99.9 -99.99 -9.99
2020/01/19 00:48 EST  -99.99 -99.99 -999 -999 -999 -99.9 -99.9 -999.9 -9.9 -9.999 -99.9 -99.99 -9.99
2020/01/19 00:54 EST  -99.99 -99.99 -999 -999 -999 -99.9 -99.9 -999.9 -9.9 -9.999 -99.9 -99.99 -9.99
2020/01/19 01:00 EST  -99.99 -99.99 -999 -999 -999 -99.9 -99.9 -999.9 -9.9 -9.999 -99.9 -99.99 -9.99
2020/01/19 01:06 EST  -99.99 -99.99 -999 -999 -999 -99.9 -99.9 -999.9 -9.9 -9.999 -99.9 -99.99 -9.99
2020/01/19 01:12 EST  -99.99 -99.99 -999 -999 -999 -99.9 -99.9 -999.9 -9.9 -9.999 -99.9 -99.99 -9.99
2020/01/19 01:18 EST  -99.99 -99.99 -999 -999 -999 -99.9 -99.9 -999.9 -9.9 -9.999 -99.9 -99.99 -9.99
2020/01/19 01:24 EST  -99.99 -99.99 -999 -999 -999 -99.9 -99.9 -999.9 -9.9 -9.999 -99.9 -99.99 -9.99
2020/01/19 01:30 EST  -99.99 -99.99 -999 -999 -999 -99.9 -99.9 -999.9 -9.9 -9.999 -99.9 -99.99 -9.99
2020/01/19 01:36 EST  -99.99 -99.99 -999 -999 -999 -99.9 -99.9 -999.9 -9.9 -9.999 -99.9 -99.99 -9.99
2020/01/19 01:42 EST  -99.99 -99.99 -999 -999 -999 -99.9 -99.9 -999.9 -9.9 -9.999 -99.9 -99.99 -9.99
2020/01/19 01:48 EST  -99.99 -99.99 -999 -999 -999 -99.9 -99.9 -999.9 -9.9 -9.999 -99.9 -99.99 -9.99
2020/01/19 01:54 EST  -99.99 -99.99 -999 -999 -999 -99.9 -99.9 -999.9 -9.9 -9.999 -99.9 -99.99 -9.99
2020/01/19 02:00 EST  -99.99 -99.99 -999 -999 -999 -99.9 -99.9 -999.9 -9.9 -9.999 -99.9 -99.99 -9.99
2020/01/19 02:06 EST  -99.99 -99.99 -999 -999 -999 -99.9 -99.9 -999.9 -9.9 -9.999 -99.9 -99.99 -9.99
2020/01/19 02:12 EST  -99.99 -99.99 -999 -999 -999 -99.9 -99.9 -999.9 -9.9 -9.999 -99.9 -99.99 -9.99
2020/01/19 02:18 EST  -99.99 -99.99 -999 -999 -999 -99.9 -99.9 -999.9 -9.9 -9.999 -99.9 -99.99 -9.99
2020/01/19 02:24 EST  -99.99 -99.99 -999 -999 -999 -99.9 -99.9 -999.9 -9.9 -9.999 -99.9 -99.99 -9.99
2020/01/19 02:30 EST  -99.99 -99.99 -999 -999 -999 -99.9 -99.9 -999.9 -9.9 -9.999 -99.9 -99.99 -9.99
2020/01/19 02:36 EST  -99.99 -99.99 -999 -999 -999 -99.9 -99.9 -999.9 -9.9 -9.999 -99.9 -99.99 -9.99
2020/01/19 02:42 EST  -99.99 -99.99 -999 -999 -999 -99.9 -99.9 -999.9 -9.9 -9.999 -99.9 -99.99 -9.99
2020/01/19 02:48 EST  -99.99 -99.99 -999 -999 -999 -99.9 -99.9 -999.9 -9.9 -9.999 -99.9 -99.99 -9.99
2020/01/19 02:54 EST  -99.99 -99.99 -999 -999 -999 -99.9 -99.9 -999.9 -9.9 -9.999 -99.9 -99.99 -9.99
2020/01/19 03:00 EST  -99.99 -99.99 -999 -999 -999 -99.9 -99.9 -999.9 -9.9 -9.999 -99.9 -99.99 -9.99
2020/01/19 03:06 EST  -99.99 -99.99 -999 -999 -999 -99.9 -99.9 -999.9 -9.9 -9.999 -99.9 -99.99 -9.99
2020/01/19 03:12 EST  -99.99 -99.99 -999 -999 -999 -99.9 -99.9 -999.9 -9.9 -9.999 -99.9 -99.99 -9.99
2020/01/19 03:18 EST  -99.99 -99.99 -999 -999 -999 -99.9 -99.9 -999.9 -9.9 -9.999 -99.9 -99.99 -9.99
2020/01/19 03:24 EST  -99.99 -99.99 -999 -999 -999 -99.9 -99.9 -999.9 -9.9 -9.999 -99.9 -99.99 -9.99
2020/01/19 03:30 EST  -99.99 -99.99 -999 -999 -999 -99.9 -99.9 -999.9 -9.9 -9.999 -99.9 -99.99 -9.99
2020/01/19 03:36 EST  -99.99 -99.99 -999 -999 -999 -99.9 -99.9 -999.9 -9.9 -9.999 -99.9 -99.99 -9.99
2020/01/19 03:42 EST  -99.99 -99.99 -999 -999 -999 -99.9 -99.9 -999.9 -9.9 -9.999 -99.9 -99.99 -9.99
2020/01/19 03:48 EST  -99.99 -99.99 -999 -999 -999 -99.9 -99.9 -999.9 -9.9 -9.999 -99.9 -99.99 -9.99
2020/01/19 03:54 EST  -99.99 -99.99 -999 -999 -999 -99.9 -99.9 -999.9 -9.9 -9.999 -99.9 -99.99 -9.99
2020/01/19 04:00 EST  -99.99 -99.99 -999 -999 -999 -99.9 -99.9 -999.9 -9.9 -9.999 -99.9 -99.99 -9.99
2020/01/19 04:06 EST  -99.99 -99.99 -999 -999 -999 -99.9 -99.9 -999.9 -9.9 -9.999 -99.9 -99.99 -9.99
2020/01/19 04:12 EST  -99.99 -99.99 -999 -999 -999 -99.9 -99.9 -999.9 -9.9 -9.999 -99.9 -99.99 -9.99
2020/01/19 04:18 EST  -99.99 -99.99 -999 -999 -999 -99.9 -99.9 -999.9 -9.9 -9.999 -99.9 -99.99 -9.99
2020/01/19 04:24 EST  -99.99 -99.99 -999 -999 -999 -99.9 -99.9 -999.9 -9.9 -9.999 -99.9 -99.99 -9.99
2020/01/19 04:30 EST  -99.99 -99.99 -999 -999 -999 -99.9 -99.9 -999.9 -9.9 -9.999 -99.9 -99.99 -9.99
2020/01/19 04:36 EST  -99.99 -99.99 -999 -999 -999 -99.9 -99.9 -999.9 -9.9 -9.999 -99.9 -99.99 -9.99
2020/01/19 04:42 EST  -99.99 -99.99 -999 -999 -999 -99.9 -99.9 -999.9 -9.9 -9.999 -99.9 -99.99 -9.99
2020/01/19 04:48 EST  -99.99 -99.99 -999 -999 -999 -99.9 -99.9 -999.9 -9.9 -9.999 -99.9 -99.99 -9.99
2020/01/19 04:54 EST  -99.99 -99.99 -999 -999 -999 -99.9 -99.9 -999.9 -9.9 -9.999 -99.9 -99.99 -9.99
2020/01/19 05:00 EST  -99.99 -99.99 -999 -999 -999 -99.9 -99.9 -999.9 -9.9 -9.999 -99.9 -99.99 -9.99
2020/01/19 05:06 EST  -99.99 -99.99 -999 -999 -999 -99.9 -99.9 -999.9 -9.9 -9.999 -99.9 -99.99 -9.99
2020/01/19 05:12 EST  -99.99 -99.99 -999 -999 -999 -99.9 -99.9 -999.9 -9.9 -9.999 -99.9 -99.99 -9.99
2020/01/19 05:18 EST  -99.99 -99.99 -999 -999 -999 -99.9 -99.9 -999.9 -9.9 -9.999 -99.9 -99.99 -9.99
2020/01/19 05:24 EST  -99.99 -99.99 -999 -999 -999 -99.9 -99.9 -999.9 -9.9 -9.999 -99.9 -99.99 -9.99
2020/01/19 05:30 EST  -99.99 -99.99 -999 -999 -999 -99.9 -99.9 -999.9 -9.9 -9.999 -99.9 -99.99 -9.99
2020/01/19 05:36 EST  -99.99 -99.99 -999 -999 -999 -99.9 -99.9 -999.9 -9.9 -9.999 -99.9 -99.99 -9.99
2020/01/19 05:42 EST  -99.99 -99.99 -999 -999 -999 -99.9 -99.9 -999.9 -9.9 -9.999 -99.9 -99.99 -9.99
2020/01/19 05:48 EST  -99.99 -99.99 -999 -999 -999 -99.9 -99.9 -999.9 -9.9 -9.999 -99.9 -99.99 -9.99
2020/01/19 05:54 EST  -99.99 -99.99 -999 -999 -999 -99.9 -99.9 -999.9 -9.9 -9.999 -99.9 -99.99 -9.99
2020/01/19 06:00 EST  -99.99 -99.99 -999 -999 -999 -99.9 -99.9 -999.9 -9.9 -9.999 -99.9 -99.99 -9.99
2020/01/19 06:06 EST  -99.99 -99.99 -999 -999 -999 -99.9 -99.9 -999.9 -9.9 -9.999 -99.9 -99.99 -9.99
2020/01/19 06:12 EST  -99.99 -99.99 -999 -999 -999 -99.9 -99.9 -999.9 -9.9 -9.999 -99.9 -99.99 -9.99
2020/01/19 06:18 EST  -99.99 -99.99 -999 -999 -999 -99.9 -99.9 -999.9 -9.9 -9.999 -99.9 -99.99 -9.99
2020/01/19 06:24 EST  -99.99 -99.99 -999 -999 -999 -99.9 -99.9 -999.9 -9.9 -9.999 -99.9 -99.99 -9.99
2020/01/19 06:30 EST  -99.99 -99.99 -999 -999 -999 -99.9 -99.9 -999.9 -9.9 -9.999 -99.9 -99.99 -9.99
2020/01/19 06:36 EST  -99.99 -99.99 -999 -999 -999 -99.9 -99.9 -999.9 -9.9 -9.999 -99.9 -99.99 -9.99
2020/01/19 06:42 EST  -99.99 -99.99 -999 -999 -999 -99.9 -99.9 -999.9 -9.9 -9.999 -99.9 -99.99 -9.99